Time;durP1;ratioP1;P1;durP2;ratioP2;P2;SDS_P1;SDS_P2;PMS_P1;PMS_P2;Temp;Humidity;BMP_temperature;BMP_pressure;BME280_temperature;BME280_humidity;BME280_pressure;Samples;Min_cycle;Max_cycle;Signal;HPM_P1;HPM_P2
2022/03/03 00:01:37;;;;;;;24.98;14.95;;;;;;;-2.10;84.97;102184.84;5070336;28;20033;-82
2022/03/03 00:04:02;;;;;;;27.20;15.77;;;;;;;-2.14;84.83;102178.81;5070283;28;20452;-83
2022/03/03 00:06:28;;;;;;;25.83;15.48;;;;;;;-2.17;85.47;102178.00;5069969;28;20118;-82
2022/03/03 00:08:53;;;;;;;23.40;14.20;;;;;;;-2.20;84.90;102168.47;5052983;28;20043;-82
2022/03/03 00:11:19;;;;;;;25.67;14.73;;;;;;;-2.22;84.49;102174.63;5052339;28;20032;-82
2022/03/03 00:13:44;;;;;;;28.05;16.20;;;;;;;-2.25;85.09;102172.06;5051883;28;20041;-81
2022/03/03 00:16:10;;;;;;;23.90;14.73;;;;;;;-2.29;84.80;102171.22;5072166;28;20365;-81
2022/03/03 00:18:35;;;;;;;23.50;14.85;;;;;;;-2.32;84.78;102168.69;5073805;28;20078;-81
2022/03/03 00:21:01;;;;;;;25.55;15.27;;;;;;;-2.34;85.38;102167.84;5073902;28;20422;-81
2022/03/03 00:23:27;;;;;;;25.40;14.60;;;;;;;-2.36;85.60;102170.47;5055516;28;20059;-80
2022/03/03 00:25:52;;;;;;;27.45;15.80;;;;;;;-2.37;85.79;102162.69;5073919;28;20047;-82
2022/03/03 00:28:17;;;;;;;24.38;14.18;;;;;;;-2.40;85.95;102165.34;5055579;28;20043;-82
2022/03/03 00:30:43;;;;;;;23.92;14.70;;;;;;;-2.42;85.54;102167.09;5073283;28;20067;-82
2022/03/03 00:33:08;;;;;;;23.33;14.15;;;;;;;-2.45;85.75;102161.94;5073354;28;20461;-81
2022/03/03 00:35:34;;;;;;;26.30;15.05;;;;;;;-2.47;85.96;102159.34;5055167;28;20338;-81
2022/03/03 00:37:59;;;;;;;25.00;14.38;;;;;;;-2.49;86.03;102158.50;5073489;28;20035;-81
2022/03/03 00:40:24;;;;;;;23.42;14.05;;;;;;;-2.51;86.06;102158.53;5073537;28;20505;-83
2022/03/03 00:42:50;;;;;;;26.67;15.82;;;;;;;-2.52;85.61;102153.34;5073321;28;20057;-80
2022/03/03 00:45:15;;;;;;;26.90;14.27;;;;;;;-2.55;86.19;102156.84;5073148;28;20400;-81
2022/03/03 00:47:41;;;;;;;25.10;15.13;;;;;;;-2.57;86.24;102156.00;5055184;28;20050;-81
2022/03/03 00:50:07;;;;;;;23.60;15.02;;;;;;;-2.58;85.63;102158.63;5073583;28;20109;-82
2022/03/03 00:52:32;;;;;;;24.45;15.18;;;;;;;-2.61;85.89;102154.34;5073242;28;20318;-83
2022/03/03 00:54:57;;;;;;;27.38;15.50;;;;;;;-2.62;86.51;102150.00;5055095;28;20041;-81
2022/03/03 00:57:23;;;;;;;26.65;14.52;;;;;;;-2.64;86.38;102151.78;5054990;28;20025;-81
2022/03/03 00:59:48;;;;;;;30.77;16.80;;;;;;;-2.64;86.69;102151.78;5073027;28;20080;-81
2022/03/03 01:02:14;;;;;;;26.08;15.70;;;;;;;-2.63;87.04;102156.09;5073322;28;20163;-81
2022/03/03 01:04:39;;;;;;;26.23;15.18;;;;;;;-2.63;87.09;102145.66;5073114;28;20104;-81
2022/03/03 01:07:05;;;;;;;25.40;15.32;;;;;;;-2.62;86.86;102143.94;5055034;28;20333;-82
2022/03/03 01:09:31;;;;;;;25.40;15.13;;;;;;;-2.61;87.05;102148.25;5073131;28;20108;-82
2022/03/03 01:11:56;;;;;;;25.20;15.88;;;;;;;-2.63;86.47;102150.03;5072569;28;20379;-82
2022/03/03 01:14:23;;;;;;;24.88;15.23;;;;;;;-2.64;86.45;102143.97;5054787;28;20474;-83
2022/03/03 01:16:52;;;;;;;25.08;14.98;;;;;;;-2.64;86.39;102140.47;5073051;28;20024;-81
2022/03/03 01:19:18;;;;;;;24.30;15.23;;;;;;;-2.69;86.24;102137.94;5072910;28;20123;-81
2022/03/03 01:21:44;;;;;;;26.73;16.52;;;;;;;-2.70;86.44;102134.47;5072743;28;20090;-80
2022/03/03 01:24:10;;;;;;;26.17;15.43;;;;;;;-2.69;86.35;102132.72;5072346;28;20384;-82
2022/03/03 01:26:35;;;;;;;26.45;15.32;;;;;;;-2.70;86.51;102125.81;5072157;28;20059;-80
2022/03/03 01:29:00;;;;;;;24.13;14.57;;;;;;;-2.69;87.05;102122.31;5071889;28;20058;-80
2022/03/03 01:31:26;;;;;;;25.35;15.43;;;;;;;-2.71;86.61;102111.91;5072447;28;20119;-81
2022/03/03 01:33:51;;;;;;;27.48;16.00;;;;;;;-2.70;87.01;102108.44;5072237;28;20451;-81
2022/03/03 01:36:16;;;;;;;24.65;14.95;;;;;;;-2.67;87.20;102107.53;5054327;28;20127;-81
2022/03/03 01:38:42;;;;;;;32.33;16.30;;;;;;;-2.67;88.06;102103.16;5072636;28;20060;-81
2022/03/03 01:41:08;;;;;;;26.42;16.15;;;;;;;-2.64;88.11;102104.88;5072284;28;20036;-81
2022/03/03 01:43:34;;;;;;;27.05;15.70;;;;;;;-2.63;88.25;102100.50;5072262;28;20036;-82
2022/03/03 01:45:59;;;;;;;29.75;17.33;;;;;;;-2.62;88.46;102103.09;5054205;28;20496;-82
2022/03/03 01:48:25;;;;;;;26.67;16.08;;;;;;;-2.62;88.82;102094.44;5072045;28;20028;-82
2022/03/03 01:50:50;;;;;;;27.02;15.82;;;;;;;-2.63;88.76;102097.91;5072407;28;20139;-82
2022/03/03 01:53:16;;;;;;;26.80;15.88;;;;;;;-2.63;88.55;102090.94;5054094;28;20036;-82
2022/03/03 01:55:41;;;;;;;26.65;15.18;;;;;;;-2.64;88.46;102089.25;5054340;28;20211;-82
2022/03/03 01:58:07;;;;;;;30.73;16.58;;;;;;;-2.66;88.36;102081.44;5054114;28;20033;-82
2022/03/03 02:00:32;;;;;;;27.67;15.45;;;;;;;-2.69;88.17;102078.91;5054756;28;20107;-79
2022/03/03 02:03:00;;;;;;;25.98;15.00;;;;;;;-2.70;88.10;102084.13;5056364;28;20081;-78
2022/03/03 02:05:27;;;;;;;26.83;15.60;;;;;;;-2.71;88.29;102079.78;5073897;28;20036;-78
2022/03/03 02:07:52;;;;;;;25.52;15.95;;;;;;;-2.71;88.75;102079.78;5074056;28;20074;-79
2022/03/03 02:10:18;;;;;;;25.48;16.15;;;;;;;-2.73;88.79;102073.72;5073790;28;20123;-79
2022/03/03 02:12:43;;;;;;;26.65;15.60;;;;;;;-2.74;88.81;102079.84;5073902;28;20105;-80
2022/03/03 02:15:17;;;;;;;25.02;15.45;;;;;;;-2.75;88.80;102075.50;5074447;28;20028;-79
2022/03/03 02:17:43;;;;;;;24.08;15.02;;;;;;;-2.79;88.01;102073.81;5055909;28;20032;-79
2022/03/03 02:20:19;;;;;;;26.77;15.45;;;;;;;-2.83;87.77;102071.25;5073566;28;20025;-79
2022/03/03 02:22:44;;;;;;;29.65;14.85;;;;;;;-2.87;88.28;102066.13;5073724;28;20036;-79
2022/03/03 02:25:10;;;;;;;24.33;15.07;;;;;;;-2.91;87.89;102060.09;5056080;28;20131;-79
2022/03/03 02:27:35;;;;;;;25.77;16.23;;;;;;;-2.92;87.94;102058.38;5073509;28;20094;-79
2022/03/03 02:30:01;;;;;;;28.67;15.40;;;;;;;-2.93;87.98;102063.63;5074104;28;20116;-79
2022/03/03 02:32:26;;;;;;;26.77;15.50;;;;;;;-2.95;88.11;102061.03;5073418;28;20549;-79
2022/03/03 02:34:51;;;;;;;29.90;15.82;;;;;;;-2.96;88.16;102054.09;5073374;28;20425;-79
2022/03/03 02:37:17;;;;;;;23.80;15.75;;;;;;;-2.96;88.14;102054.09;5073454;28;20028;-78
2022/03/03 02:39:44;;;;;;;26.73;16.10;;;;;;;-2.96;88.24;102054.09;5073652;28;20032;-78
2022/03/03 02:42:09;;;;;;;26.85;16.00;;;;;;;-2.98;87.90;102055.88;5073457;28;20063;-79
2022/03/03 02:44:34;;;;;;;30.23;15.45;;;;;;;-2.99;88.09;102055.91;5073736;28;20440;-79
2022/03/03 02:47:00;;;;;;;31.23;16.52;;;;;;;-2.99;87.73;102054.13;5072971;28;20032;-79
2022/03/03 02:49:26;;;;;;;22.67;15.25;;;;;;;-3.00;87.69;102057.66;5073422;28;20070;-80
2022/03/03 02:51:51;;;;;;;29.23;15.95;;;;;;;-3.01;87.55;102054.16;5073751;28;20102;-79
2022/03/03 02:54:17;;;;;;;25.77;15.70;;;;;;;-3.01;87.48;102055.91;5055204;28;20366;-79
2022/03/03 02:59:26;;;;;;;25.05;15.45;;;;;;;-3.00;87.85;102049.84;5073562;28;20146;-80
2022/03/03 03:01:51;;;;;;;24.75;15.75;;;;;;;-2.99;87.97;102046.31;5055163;28;20028;-79
2022/03/03 03:04:17;;;;;;;26.30;15.35;;;;;;;-3.00;87.74;102039.41;5073313;28;20385;-79
2022/03/03 03:06:43;;;;;;;25.73;15.63;;;;;;;-3.01;87.70;102041.13;5073460;28;20039;-79
2022/03/03 03:09:08;;;;;;;30.80;17.48;;;;;;;-3.01;87.68;102040.28;5055347;28;20045;-80
2022/03/03 03:11:34;;;;;;;28.08;15.82;;;;;;;-2.99;88.08;102035.06;5073082;28;20127;-80
2022/03/03 03:13:59;;;;;;;26.27;16.38;;;;;;;-3.03;88.54;102032.50;5072940;28;20029;-79
2022/03/03 03:16:25;;;;;;;28.80;16.42;;;;;;;-3.04;88.99;102038.59;5072964;28;20108;-79
2022/03/03 03:18:50;;;;;;;30.20;16.10;;;;;;;-3.04;88.73;102029.91;5073295;28;20394;-78
2022/03/03 03:21:15;;;;;;;28.02;16.02;;;;;;;-3.05;88.44;102034.25;5072843;28;20033;-79
2022/03/03 03:23:41;;;;;;;25.50;15.23;;;;;;;-3.05;88.54;102030.78;5038362;28;20499;-79
2022/03/03 03:26:06;;;;;;;31.20;16.77;;;;;;;-3.05;88.86;102029.03;5072575;28;20036;-79
2022/03/03 03:28:32;;;;;;;26.80;15.85;;;;;;;-3.05;89.10;102036.00;5072883;28;20220;-79
2022/03/03 03:30:57;;;;;;;28.27;16.25;;;;;;;-3.07;88.86;102032.56;5072789;28;20033;-79
2022/03/03 03:33:23;;;;;;;25.58;16.25;;;;;;;-3.08;88.55;102036.06;5054867;28;20028;-80
2022/03/03 03:35:48;;;;;;;30.15;16.25;;;;;;;-3.10;88.30;102033.47;5072910;28;20040;-78
2022/03/03 03:38:13;;;;;;;31.48;16.17;;;;;;;-3.11;88.29;102030.88;5072886;28;20063;-79
2022/03/03 03:40:39;;;;;;;25.48;15.13;;;;;;;-3.12;88.48;102023.94;5054486;28;20199;-80
2022/03/03 03:43:05;;;;;;;30.98;16.25;;;;;;;-3.11;88.20;102023.06;5072499;28;20033;-79
2022/03/03 03:45:31;;;;;;;25.95;16.33;;;;;;;-3.12;88.25;102026.56;5072813;28;20060;-80
2022/03/03 03:47:57;;;;;;;28.75;16.55;;;;;;;-3.14;88.52;102023.97;5072534;28;20032;-79
2022/03/03 03:50:23;;;;;;;32.03;16.55;;;;;;;-3.16;88.94;102015.34;5073536;28;20181;-79
2022/03/03 03:52:48;;;;;;;26.13;15.85;;;;;;;-3.17;88.56;102015.34;5076913;28;20435;-78
2022/03/03 03:55:14;;;;;;;26.15;16.42;;;;;;;-3.18;88.55;102011.88;5076322;28;20462;-79
2022/03/03 03:57:39;;;;;;;35.15;16.55;;;;;;;-3.20;88.46;102005.84;5076658;28;20032;-79
2022/03/03 04:00:10;;;;;;;30.02;16.33;;;;;;;-3.21;88.74;102006.72;5058082;28;20033;-79
2022/03/03 04:02:36;;;;;;;32.78;17.80;;;;;;;-3.24;88.66;102007.63;5059009;28;20024;-79
2022/03/03 04:05:01;;;;;;;25.75;15.13;;;;;;;-3.25;89.03;102003.31;5076456;28;20502;-79
2022/03/03 04:07:26;;;;;;;24.50;15.18;;;;;;;-3.27;88.84;102007.69;5076591;28;20036;-79
2022/03/03 04:09:52;;;;;;;26.20;16.90;;;;;;;-3.28;88.70;102003.34;5076248;28;20039;-78
2022/03/03 04:12:17;;;;;;;28.67;15.77;;;;;;;-3.30;88.54;102009.44;5075999;28;20072;-80
2022/03/03 04:14:42;;;;;;;26.95;16.35;;;;;;;-3.32;88.70;102001.66;5076434;28;20376;-79
2022/03/03 04:17:08;;;;;;;29.83;16.27;;;;;;;-3.33;89.37;102005.13;5076960;28;20032;-79
2022/03/03 04:19:33;;;;;;;27.08;15.88;;;;;;;-3.37;89.17;101995.69;5076458;28;20025;-79
2022/03/03 04:21:58;;;;;;;25.25;15.52;;;;;;;-3.40;88.89;102006.97;5076096;28;20111;-78
2022/03/03 04:24:24;;;;;;;35.38;16.10;;;;;;;-3.41;88.77;102004.41;5076168;28;20055;-78
2022/03/03 04:26:49;;;;;;;29.50;16.25;;;;;;;-3.41;88.59;102004.41;5058777;28;20380;-78
2022/03/03 04:29:15;;;;;;;28.05;16.20;;;;;;;-3.42;88.60;102000.06;5076071;28;20485;-79
2022/03/03 04:31:40;;;;;;;27.15;16.73;;;;;;;-3.43;88.40;101999.22;5042113;28;20041;-79
2022/03/03 04:34:05;;;;;;;31.20;17.83;;;;;;;-3.43;88.72;102004.41;5058026;28;20052;-79
2022/03/03 04:36:31;;;;;;;28.55;15.88;;;;;;;-3.46;89.16;102000.97;5075814;28;20029;-79
2022/03/03 04:38:56;;;;;;;28.10;16.40;;;;;;;-3.52;89.22;101996.75;5075819;28;20028;-78
2022/03/03 04:41:22;;;;;;;26.88;16.60;;;;;;;-3.55;89.04;101994.19;5076134;28;20059;-79
2022/03/03 04:43:47;;;;;;;30.52;16.35;;;;;;;-3.58;88.62;101992.47;5076234;28;20036;-79
2022/03/03 04:46:13;;;;;;;27.67;16.80;;;;;;;-3.61;88.95;101991.66;5076083;28;20432;-78
2022/03/03 04:48:38;;;;;;;28.02;16.92;;;;;;;-3.63;88.57;101988.22;5076051;28;20037;-79
2022/03/03 04:51:03;;;;;;;30.08;16.98;;;;;;;-3.67;88.81;101984.78;5076103;28;20112;-80
2022/03/03 04:53:29;;;;;;;27.20;16.95;;;;;;;-3.69;88.38;101986.53;5075809;28;20082;-79
2022/03/03 04:55:56;;;;;;;30.92;17.05;;;;;;;-3.70;88.77;101987.44;5075510;28;20032;-79
2022/03/03 04:58:21;;;;;;;29.77;17.17;;;;;;;-3.70;89.25;101987.44;5076167;28;20028;-79
2022/03/03 05:00:47;;;;;;;28.83;17.58;;;;;;;-3.73;89.52;101990.09;5075356;28;20040;-79
2022/03/03 05:03:12;;;;;;;31.35;16.88;;;;;;;-3.76;89.99;101985.78;5074664;28;20040;-79
2022/03/03 05:05:38;;;;;;;28.17;16.63;;;;;;;-3.78;89.84;101990.13;5075273;28;20047;-79
2022/03/03 05:08:03;;;;;;;32.70;17.67;;;;;;;-3.81;89.93;101984.94;5075341;28;20031;-79
2022/03/03 05:10:29;;;;;;;26.10;15.90;;;;;;;-3.84;90.22;101989.34;5075209;28;20457;-78
2022/03/03 05:12:54;;;;;;;36.03;18.23;;;;;;;-3.88;90.15;101988.53;5075483;28;20417;-79
2022/03/03 05:15:20;;;;;;;28.27;16.58;;;;;;;-3.88;90.26;101998.94;5074826;28;20037;-79
2022/03/03 05:17:45;;;;;;;30.75;17.08;;;;;;;-3.93;90.60;101996.34;5075082;28;20060;-79
2022/03/03 05:20:13;;;;;;;27.30;17.02;;;;;;;-3.95;89.94;101998.13;5075016;28;20032;-79
2022/03/03 05:22:38;;;;;;;27.00;16.98;;;;;;;-3.96;89.67;101990.34;5075368;28;20052;-79
2022/03/03 05:25:04;;;;;;;27.58;17.00;;;;;;;-3.99;89.57;101993.84;5075614;28;20109;-78
2022/03/03 05:27:29;;;;;;;24.80;15.77;;;;;;;-4.01;89.28;101986.94;5075204;28;20047;-78
2022/03/03 05:29:55;;;;;;;29.20;16.42;;;;;;;-4.05;89.58;101985.25;5075038;28;20116;-80
2022/03/03 05:32:20;;;;;;;24.63;14.88;;;;;;;-4.07;89.46;101987.88;5074661;28;20036;-79
2022/03/03 05:34:46;;;;;;;27.90;17.38;;;;;;;-4.09;89.16;101984.41;5075486;28;20033;-78
2022/03/03 05:37:14;;;;;;;31.52;17.42;;;;;;;-4.10;89.60;101986.16;5075348;28;20029;-78
2022/03/03 05:39:41;;;;;;;31.05;17.17;;;;;;;-4.10;89.47;101990.50;5074840;28;20024;-79
2022/03/03 05:42:07;;;;;;;32.95;18.75;;;;;;;-4.11;89.82;101984.44;5075223;28;20035;-79
2022/03/03 05:44:34;;;;;;;31.88;16.23;;;;;;;-4.13;90.16;101977.56;5076139;28;20380;-80
2022/03/03 05:47:01;;;;;;;27.40;16.50;;;;;;;-4.13;89.93;101980.16;5075346;28;20040;-79
2022/03/03 05:49:27;;;;;;;28.20;17.83;;;;;;;-4.14;90.33;101983.63;5074555;28;20033;-79
2022/03/03 05:51:52;;;;;;;28.10;15.43;;;;;;;-4.16;90.25;101987.97;5078103;28;20453;-79
2022/03/03 05:54:18;;;;;;;25.90;16.15;;;;;;;-4.19;89.82;101983.66;5080124;28;20052;-78
2022/03/03 05:56:48;;;;;;;27.55;15.88;;;;;;;-4.21;89.66;101984.56;5077873;28;20032;-79
2022/03/03 05:59:15;;;;;;;28.17;16.00;;;;;;;-4.23;89.94;101992.38;5078281;28;20021;-79
2022/03/03 06:01:42;;;;;;;29.38;16.45;;;;;;;-4.25;89.58;101996.72;5074509;28;20094;-79
2022/03/03 06:04:12;;;;;;;28.17;16.95;;;;;;;-4.28;89.65;101984.63;5074349;28;20354;-78
2022/03/03 06:06:38;;;;;;;27.48;17.27;;;;;;;-4.26;90.09;101998.44;5074143;28;20033;-79
2022/03/03 06:09:22;;;;;;;32.55;17.92;;;;;;;-4.26;90.29;101993.25;5056795;28;20036;-79
2022/03/03 06:11:52;;;;;;;31.02;16.83;;;;;;;-4.27;90.21;101998.47;5073949;28;20039;-79
2022/03/03 06:14:27;;;;;;;29.65;16.10;;;;;;;-4.29;90.37;101995.03;5073267;28;20028;-79
2022/03/03 06:16:55;;;;;;;29.02;17.42;;;;;;;-4.29;90.17;101997.63;5074420;28;20077;-78
2022/03/03 06:19:20;;;;;;;30.70;17.55;;;;;;;-4.29;89.86;101995.88;5056311;28;20036;-74
2022/03/03 06:21:46;;;;;;;31.88;16.95;;;;;;;-4.30;90.23;101993.31;5074118;28;20040;-77
2022/03/03 06:24:11;;;;;;;31.30;17.25;;;;;;;-4.30;89.96;101995.91;5073734;28;20380;-78
2022/03/03 06:26:36;;;;;;;31.42;18.23;;;;;;;-4.29;90.07;102003.69;5056400;28;20033;-79
2022/03/03 06:29:03;;;;;;;30.35;18.10;;;;;;;-4.27;90.56;102003.66;5073257;28;20032;-78
2022/03/03 06:31:28;;;;;;;35.70;18.33;;;;;;;-4.27;90.98;101999.34;5073595;28;20073;-79
2022/03/03 06:33:54;;;;;;;28.80;17.83;;;;;;;-4.24;91.13;102001.03;5055344;28;20032;-79
2022/03/03 06:36:19;;;;;;;28.45;16.70;;;;;;;-4.25;91.26;101996.72;5072992;28;20039;-79
2022/03/03 06:38:45;;;;;;;27.05;17.10;;;;;;;-4.23;91.42;101994.13;5072929;28;20056;-78
2022/03/03 06:41:10;;;;;;;30.38;17.13;;;;;;;-4.23;91.10;102002.75;5054601;28;20468;-78
2022/03/03 06:43:37;;;;;;;28.05;17.20;;;;;;;-4.20;91.18;101991.47;5073229;28;20120;-79
2022/03/03 06:46:03;;;;;;;29.40;17.83;;;;;;;-4.19;91.65;101996.66;5073238;28;20108;-79
2022/03/03 06:48:29;;;;;;;28.70;17.45;;;;;;;-4.18;91.27;102000.13;5073459;28;20425;-78
2022/03/03 06:50:56;;;;;;;35.60;20.85;;;;;;;-4.14;92.06;102001.81;5073083;28;20044;-79
2022/03/03 06:53:31;;;;;;;35.15;20.00;;;;;;;-4.07;92.33;102000.88;5073342;28;20044;-80
2022/03/03 06:56:06;;;;;;;32.67;19.77;;;;;;;-4.01;92.87;101995.59;5072850;28;20070;-77
2022/03/03 06:58:32;;;;;;;31.45;19.77;;;;;;;-3.94;93.08;101994.66;5072912;28;20107;-78
2022/03/03 07:01:01;;;;;;;37.42;20.45;;;;;;;-3.89;93.36;101999.81;5072626;28;20445;-76
2022/03/03 07:03:29;;;;;;;34.72;19.50;;;;;;;-3.81;92.94;102000.56;5072975;28;20024;-79
2022/03/03 07:05:55;;;;;;;40.28;20.00;;;;;;;-3.75;92.97;102002.22;5072872;28;20028;-78
2022/03/03 07:08:21;;;;;;;41.88;19.27;;;;;;;-3.67;93.32;102005.59;5038124;28;20024;-78
2022/03/03 07:10:48;;;;;;;35.38;20.58;;;;;;;-3.57;93.19;102009.81;5072418;28;20119;-77
2022/03/03 07:13:16;;;;;;;36.53;20.88;;;;;;;-3.46;93.79;102006.19;5053906;28;20033;-76
2022/03/03 07:15:49;;;;;;;34.42;19.67;;;;;;;-3.34;93.37;102008.66;5072449;28;20425;-77
2022/03/03 07:18:24;;;;;;;34.63;19.77;;;;;;;-3.21;93.67;102011.91;5072643;28;20434;-77
2022/03/03 07:21:32;;;;;;;31.98;19.65;;;;;;;-3.07;93.58;102016.94;5072196;28;20074;-78
2022/03/03 07:24:04;;;;;;;31.92;19.30;;;;;;;-2.92;93.47;102016.69;5072386;28;20052;-80
2022/03/03 07:26:31;;;;;;;36.15;21.42;;;;;;;-2.75;93.75;102010.38;5072225;28;20033;-80
2022/03/03 07:29:01;;;;;;;35.03;20.75;;;;;;;-2.62;93.78;102016.25;5072557;28;20086;-78
2022/03/03 07:31:29;;;;;;;32.70;20.05;;;;;;;-2.47;93.85;102020.34;5072167;28;20028;-77
2022/03/03 07:34:00;;;;;;;32.60;20.30;;;;;;;-2.33;93.69;102026.16;5072464;28;20044;-79
2022/03/03 07:36:33;;;;;;;31.30;19.95;;;;;;;-2.19;93.89;102025.94;5054484;28;20041;-78
2022/03/03 07:39:01;;;;;;;34.88;20.50;;;;;;;-2.06;93.53;102019.59;5072315;28;20043;-77
2022/03/03 07:41:28;;;;;;;31.55;19.52;;;;;;;-1.92;93.52;102021.09;5072810;28;20035;-79
2022/03/03 07:43:54;;;;;;;33.45;20.05;;;;;;;-1.78;93.38;102021.66;5072705;28;20035;-78
2022/03/03 07:46:21;;;;;;;32.47;19.85;;;;;;;-1.65;93.23;102020.50;5072096;28;20056;-78
2022/03/03 07:48:47;;;;;;;31.92;20.27;;;;;;;-1.48;93.21;102014.97;5072136;28;20032;-80
2022/03/03 07:51:13;;;;;;;35.17;20.50;;;;;;;-1.34;92.91;102017.25;5072304;28;20046;-79
2022/03/03 07:53:39;;;;;;;32.92;20.35;;;;;;;-1.17;92.55;102013.41;5072339;28;20025;-79
2022/03/03 07:56:05;;;;;;;32.40;20.50;;;;;;;-1.01;92.22;102016.53;5072211;28;20449;-80
2022/03/03 07:58:39;;;;;;;33.67;21.77;;;;;;;-0.80;92.38;102018.63;5072159;28;20036;-78
2022/03/03 08:01:06;;;;;;;33.63;20.63;;;;;;;-0.65;92.12;102016.56;5072499;28;20027;-77
2022/03/03 08:03:31;;;;;;;29.13;19.23;;;;;;;-0.46;92.06;102017.81;5071913;28;20041;-79
2022/03/03 08:05:58;;;;;;;32.83;19.80;;;;;;;-0.30;91.72;102020.88;5072009;28;20032;-80
2022/03/03 08:08:28;;;;;;;30.90;19.15;;;;;;;-0.10;91.46;102016.88;5071482;28;20111;-77
2022/03/03 08:11:06;;;;;;;33.13;20.70;;;;;;;0.11;91.16;102023.28;5072172;28;20434;-78
2022/03/03 08:13:33;;;;;;;30.65;18.88;;;;;;;0.26;89.33;102022.00;5071959;28;20262;-77
2022/03/03 08:15:59;;;;;;;30.45;18.00;;;;;;;0.44;88.96;102034.53;5071910;28;20028;-78
2022/03/03 08:18:35;;;;;;;30.10;19.25;;;;;;;0.65;88.86;102024.34;5053874;28;20452;-77
2022/03/03 08:21:01;;;;;;;32.35;18.40;;;;;;;0.82;88.72;102026.44;5071841;28;20029;-76
2022/03/03 08:23:27;;;;;;;28.60;19.25;;;;;;;1.00;87.54;102030.25;5071533;28;20131;-77
2022/03/03 08:25:54;;;;;;;28.05;19.50;;;;;;;1.19;85.65;102025.28;5072310;28;20072;-77
2022/03/03 08:28:24;;;;;;;31.65;19.00;;;;;;;1.40;84.01;102024.59;5071793;28;20127;-78
2022/03/03 08:31:02;;;;;;;27.98;18.40;;;;;;;1.63;83.14;102033.47;5071765;28;20029;-75
2022/03/03 08:33:39;;;;;;;27.67;17.48;;;;;;;1.82;79.94;102035.44;5072332;28;20059;-78
2022/03/03 08:36:09;;;;;;;23.92;17.73;;;;;;;2.02;78.10;102043.47;5071642;28;20039;-78
2022/03/03 08:38:37;;;;;;;33.05;17.40;;;;;;;2.23;75.91;102038.38;5075773;28;20034;-76
2022/03/03 08:41:04;;;;;;;27.52;16.70;;;;;;;2.43;72.48;102035.88;5075265;28;20043;-77
2022/03/03 08:43:32;;;;;;;24.05;16.73;;;;;;;2.70;71.82;102032.25;5075263;28;20043;-78
2022/03/03 08:46:02;;;;;;;28.90;16.33;;;;;;;2.95;70.26;102026.91;5075867;28;20033;-78
2022/03/03 08:48:30;;;;;;;26.08;16.77;;;;;;;3.26;67.73;102023.91;5057933;28;20025;-77
2022/03/03 08:50:57;;;;;;;27.50;16.77;;;;;;;3.48;65.41;102026.50;5057297;28;20051;-78
2022/03/03 08:53:22;;;;;;;29.73;17.00;;;;;;;3.80;63.63;102020.78;5075303;28;20037;-77
2022/03/03 08:55:48;;;;;;;26.73;15.98;;;;;;;4.17;61.93;102029.72;5075219;28;20044;-78
2022/03/03 08:58:14;;;;;;;22.45;16.23;;;;;;;4.63;60.46;102021.47;5075209;28;20090;-79
2022/03/03 09:00:40;;;;;;;26.60;17.10;;;;;;;5.42;59.14;102026.47;5075036;28;20032;-77
2022/03/03 09:03:06;;;;;;;23.40;17.20;;;;;;;6.14;55.07;102030.72;5075494;28;20029;-77
2022/03/03 09:05:32;;;;;;;23.83;16.42;;;;;;;7.29;50.96;102027.13;5077355;28;20132;-79
2022/03/03 09:07:57;;;;;;;23.08;15.60;;;;;;;8.56;47.25;102038.97;5079110;28;20088;-77
2022/03/03 09:10:23;;;;;;;24.08;16.23;;;;;;;9.77;43.71;102038.13;5075929;28;20060;-78
2022/03/03 09:12:48;;;;;;;20.77;15.25;;;;;;;10.97;39.93;102038.63;5075366;28;20033;-77
2022/03/03 09:15:15;;;;;;;20.15;15.13;;;;;;;11.99;38.00;102038.06;5074694;28;20037;-77
2022/03/03 09:17:41;;;;;;;22.88;14.90;;;;;;;12.78;35.04;102041.69;5074866;28;20028;-78
2022/03/03 09:20:11;;;;;;;21.23;14.75;;;;;;;12.51;35.17;102029.63;5075829;28;20071;-78
2022/03/03 09:22:37;;;;;;;21.10;14.27;;;;;;;13.56;34.98;102031.75;5075282;28;20103;-77
2022/03/03 09:25:03;;;;;;;21.25;14.75;;;;;;;14.27;32.79;102037.22;5075950;28;20221;-78
2022/03/03 09:27:29;;;;;;;21.48;14.45;;;;;;;14.06;32.71;102033.72;5074744;28;20195;-77
2022/03/03 09:29:55;;;;;;;25.27;14.88;;;;;;;14.33;32.05;102037.66;5074716;28;20060;-80
2022/03/03 09:32:20;;;;;;;19.35;13.43;;;;;;;14.61;30.26;102034.28;5074442;28;20036;-81
2022/03/03 09:34:46;;;;;;;19.05;14.07;;;;;;;14.49;32.10;102031.81;5074479;28;20059;-80
2022/03/03 09:37:12;;;;;;;18.38;13.90;;;;;;;14.42;31.16;102028.81;5074617;28;20124;-81
2022/03/03 09:39:37;;;;;;;16.85;13.40;;;;;;;14.65;31.53;102024.13;5074380;28;20134;-79
2022/03/03 09:42:03;;;;;;;19.10;13.70;;;;;;;13.80;30.32;102020.78;5074676;28;20423;-82
2022/03/03 09:44:28;;;;;;;18.33;13.85;;;;;;;14.73;30.30;102028.81;5074913;28;20115;-82
2022/03/03 09:46:55;;;;;;;20.55;13.48;;;;;;;14.51;29.95;102033.38;5056805;28;20035;-81
2022/03/03 09:49:21;;;;;;;17.85;12.73;;;;;;;15.29;30.11;102024.66;5073736;28;20040;-78
2022/03/03 09:51:50;;;;;;;18.13;12.85;;;;;;;15.35;29.85;102018.72;5073938;28;20029;-79
2022/03/03 09:54:17;;;;;;;16.98;13.10;;;;;;;15.76;28.45;102014.00;5074312;28;20032;-78
2022/03/03 09:56:42;;;;;;;20.08;13.57;;;;;;;15.23;29.17;102022.53;5074300;28;20127;-78
2022/03/03 09:59:08;;;;;;;17.08;12.98;;;;;;;14.88;28.47;102024.75;5074761;28;20036;-79
2022/03/03 10:01:34;;;;;;;16.05;13.40;;;;;;;15.22;29.75;102019.00;5074333;28;20024;-79
2022/03/03 10:04:17;;;;;;;19.88;13.48;;;;;;;14.83;28.46;102028.84;5074066;28;20115;-80
2022/03/03 10:06:43;;;;;;;17.75;12.73;;;;;;;15.77;27.61;102022.91;5073901;28;20040;-81
2022/03/03 10:09:09;;;;;;;19.73;13.25;;;;;;;16.14;27.23;102014.91;5074128;28;20042;-80
2022/03/03 10:11:47;;;;;;;24.52;17.27;;;;;;;16.11;26.96;102017.03;5074246;28;20033;-79
2022/03/03 10:14:12;;;;;;;18.20;13.27;;;;;;;15.65;28.44;102014.19;5074127;28;20025;-77
2022/03/03 10:16:46;;;;;;;18.42;12.98;;;;;;;15.80;28.65;102015.44;5073996;28;20457;-79
2022/03/03 10:19:12;;;;;;;18.42;12.80;;;;;;;15.40;28.05;102008.41;5074119;28;20085;-76
2022/03/03 10:21:38;;;;;;;17.10;12.52;;;;;;;15.25;27.81;102012.50;5073690;28;20057;-78
2022/03/03 10:24:21;;;;;;;15.32;12.10;;;;;;;16.16;26.85;102010.22;5073269;28;20139;-76
2022/03/03 10:26:58;;;;;;;18.73;12.65;;;;;;;16.35;27.43;102019.22;5055096;28;20425;-79
2022/03/03 10:29:25;;;;;;;18.13;13.18;;;;;;;16.80;26.25;102015.69;5073479;28;20457;-79
2022/03/03 10:31:52;;;;;;;15.38;12.50;;;;;;;17.37;26.62;102009.22;5073383;28;20029;-76
2022/03/03 10:34:22;;;;;;;15.63;12.80;;;;;;;17.47;25.45;102014.53;5073334;28;20051;-77
2022/03/03 10:36:56;;;;;;;17.85;12.07;;;;;;;16.93;26.79;102004.63;5073331;28;20064;-77
2022/03/03 10:39:22;;;;;;;17.80;12.82;;;;;;;17.18;25.68;102005.72;5072912;28;20484;-77
2022/03/03 10:41:51;;;;;;;37.17;12.48;;;;;;;17.23;26.80;102006.06;5072740;28;20547;-76
2022/03/03 10:44:30;;;;;;;18.13;12.55;;;;;;;17.81;25.31;102003.84;5073130;28;20048;-77
2022/03/03 10:47:09;;;;;;;15.18;11.55;;;;;;;17.80;24.36;102002.13;5073464;28;20047;-77
2022/03/03 10:49:38;;;;;;;15.73;12.07;;;;;;;17.26;26.18;102004.94;5073169;28;20117;-78
2022/03/03 10:52:20;;;;;;;17.55;12.25;;;;;;;17.05;25.65;102005.25;5073073;28;20461;-76
2022/03/03 10:55:02;;;;;;;19.58;12.68;;;;;;;16.65;26.23;102004.63;5072612;28;20025;-77
2022/03/03 10:57:51;;;;;;;15.57;11.80;;;;;;;16.08;25.92;102011.94;5072352;28;20028;-76
2022/03/03 11:00:23;;;;;;;15.73;11.98;;;;;;;16.29;25.98;102001.00;5072834;28;20035;-81
2022/03/03 11:02:53;;;;;;;18.90;12.45;;;;;;;16.42;25.86;101996.16;5073212;28;20020;-78
2022/03/03 11:05:22;;;;;;;18.65;11.73;;;;;;;15.82;25.81;101996.50;5073353;28;20044;-79
2022/03/03 11:07:48;;;;;;;17.27;12.77;;;;;;;15.84;26.41;101995.38;5073851;28;20374;-78
2022/03/03 11:10:19;;;;;;;19.23;12.50;;;;;;;15.45;27.74;101991.88;5072574;28;20091;-80
2022/03/03 11:12:46;;;;;;;16.17;11.95;;;;;;;14.69;27.60;101989.88;5072223;28;20073;-78